sensor_id;sensor_type;location;lat;lon;timestamp;P1;durP1;ratioP1;P2;durP2;ratioP2
37309;SDS011;23195;47.744;7.358;2023-04-24T00:01:17;2.13;;;0.90;;
37309;SDS011;23195;47.744;7.358;2023-04-24T00:03:44;1.30;;;0.83;;
37309;SDS011;23195;47.744;7.358;2023-04-24T00:06:10;1.13;;;0.70;;
37309;SDS011;23195;47.744;7.358;2023-04-24T00:08:36;2.57;;;0.83;;
37309;SDS011;23195;47.744;7.358;2023-04-24T00:11:01;3.13;;;0.60;;
37309;SDS011;23195;47.744;7.358;2023-04-24T00:13:28;0.93;;;0.67;;
37309;SDS011;23195;47.744;7.358;2023-04-24T00:15:56;2.33;;;1.03;;
37309;SDS011;23195;47.744;7.358;2023-04-24T00:18:22;1.77;;;0.60;;
37309;SDS011;23195;47.744;7.358;2023-04-24T00:20:48;1.63;;;0.63;;
37309;SDS011;23195;47.744;7.358;2023-04-24T00:23:16;2.73;;;0.67;;
37309;SDS011;23195;47.744;7.358;2023-04-24T00:25:42;1.20;;;0.70;;
37309;SDS011;23195;47.744;7.358;2023-04-24T00:28:07;1.43;;;0.60;;
37309;SDS011;23195;47.744;7.358;2023-04-24T00:30:36;1.73;;;0.70;;
37309;SDS011;23195;47.744;7.358;2023-04-24T00:33:02;1.13;;;0.77;;
37309;SDS011;23195;47.744;7.358;2023-04-24T00:35:28;0.80;;;0.80;;
37309;SDS011;23195;47.744;7.358;2023-04-24T00:37:54;1.17;;;0.63;;
37309;SDS011;23195;47.744;7.358;2023-04-24T00:40:20;0.90;;;0.50;;
37309;SDS011;23195;47.744;7.358;2023-04-24T00:42:46;1.33;;;0.70;;
37309;SDS011;23195;47.744;7.358;2023-04-24T00:45:15;0.63;;;0.50;;
37309;SDS011;23195;47.744;7.358;2023-04-24T00:47:44;3.30;;;0.50;;
37309;SDS011;23195;47.744;7.358;2023-04-24T00:50:10;0.60;;;0.50;;
37309;SDS011;23195;47.744;7.358;2023-04-24T00:52:38;0.70;;;0.57;;
37309;SDS011;23195;47.744;7.358;2023-04-24T00:55:05;1.17;;;0.47;;
37309;SDS011;23195;47.744;7.358;2023-04-24T00:57:34;2.73;;;0.60;;
37309;SDS011;23195;47.744;7.358;2023-04-24T01:00:00;0.57;;;0.40;;
37309;SDS011;23195;47.744;7.358;2023-04-24T01:02:35;2.20;;;0.90;;
37309;SDS011;23195;47.744;7.358;2023-04-24T01:05:05;1.37;;;0.67;;
37309;SDS011;23195;47.744;7.358;2023-04-24T01:07:33;1.40;;;0.80;;
37309;SDS011;23195;47.744;7.358;2023-04-24T01:09:59;1.70;;;0.70;;
37309;SDS011;23195;47.744;7.358;2023-04-24T01:12:25;1.73;;;0.63;;
37309;SDS011;23195;47.744;7.358;2023-04-24T01:14:51;2.63;;;0.97;;
37309;SDS011;23195;47.744;7.358;2023-04-24T01:17:17;1.77;;;0.60;;
37309;SDS011;23195;47.744;7.358;2023-04-24T01:19:43;1.37;;;0.60;;
37309;SDS011;23195;47.744;7.358;2023-04-24T01:22:10;0.80;;;0.47;;
37309;SDS011;23195;47.744;7.358;2023-04-24T01:24:37;2.30;;;0.70;;
37309;SDS011;23195;47.744;7.358;2023-04-24T01:27:04;2.17;;;0.67;;
37309;SDS011;23195;47.744;7.358;2023-04-24T01:29:30;0.87;;;0.63;;
37309;SDS011;23195;47.744;7.358;2023-04-24T01:31:59;2.33;;;0.60;;
37309;SDS011;23195;47.744;7.358;2023-04-24T01:34:25;3.13;;;0.87;;
37309;SDS011;23195;47.744;7.358;2023-04-24T01:36:52;2.70;;;0.80;;
37309;SDS011;23195;47.744;7.358;2023-04-24T01:39:17;1.83;;;0.60;;
37309;SDS011;23195;47.744;7.358;2023-04-24T01:41:45;1.20;;;0.60;;
37309;SDS011;23195;47.744;7.358;2023-04-24T01:44:11;2.83;;;0.87;;
37309;SDS011;23195;47.744;7.358;2023-04-24T01:46:37;2.33;;;1.07;;
37309;SDS011;23195;47.744;7.358;2023-04-24T01:49:03;1.40;;;1.00;;
37309;SDS011;23195;47.744;7.358;2023-04-24T01:51:29;1.73;;;0.80;;
37309;SDS011;23195;47.744;7.358;2023-04-24T01:53:55;1.23;;;0.80;;
37309;SDS011;23195;47.744;7.358;2023-04-24T01:56:21;2.83;;;0.90;;
37309;SDS011;23195;47.744;7.358;2023-04-24T01:58:48;5.33;;;1.27;;
37309;SDS011;23195;47.744;7.358;2023-04-24T02:01:23;2.20;;;0.63;;
37309;SDS011;23195;47.744;7.358;2023-04-24T02:03:49;2.03;;;0.70;;
37309;SDS011;23195;47.744;7.358;2023-04-24T02:06:14;3.47;;;0.80;;
37309;SDS011;23195;47.744;7.358;2023-04-24T02:08:40;2.97;;;0.80;;
37309;SDS011;23195;47.744;7.358;2023-04-24T02:11:06;2.50;;;0.77;;
37309;SDS011;23195;47.744;7.358;2023-04-24T02:13:33;1.33;;;0.60;;
37309;SDS011;23195;47.744;7.358;2023-04-24T02:15:59;1.93;;;0.80;;
37309;SDS011;23195;47.744;7.358;2023-04-24T02:18:28;1.87;;;0.80;;
37309;SDS011;23195;47.744;7.358;2023-04-24T02:20:56;3.33;;;1.13;;
37309;SDS011;23195;47.744;7.358;2023-04-24T02:23:22;3.97;;;0.90;;
37309;SDS011;23195;47.744;7.358;2023-04-24T02:25:48;2.97;;;1.07;;
37309;SDS011;23195;47.744;7.358;2023-04-24T02:28:13;3.23;;;1.00;;
37309;SDS011;23195;47.744;7.358;2023-04-24T02:30:39;3.70;;;1.10;;
37309;SDS011;23195;47.744;7.358;2023-04-24T02:33:05;3.43;;;1.20;;
37309;SDS011;23195;47.744;7.358;2023-04-24T02:35:31;3.20;;;1.10;;
37309;SDS011;23195;47.744;7.358;2023-04-24T02:37:57;3.90;;;1.20;;
37309;SDS011;23195;47.744;7.358;2023-04-24T02:40:35;3.13;;;0.90;;
37309;SDS011;23195;47.744;7.358;2023-04-24T02:43:01;2.60;;;0.90;;
37309;SDS011;23195;47.744;7.358;2023-04-24T02:45:27;1.90;;;1.07;;
37309;SDS011;23195;47.744;7.358;2023-04-24T02:47:53;2.97;;;0.90;;
37309;SDS011;23195;47.744;7.358;2023-04-24T02:50:19;1.23;;;0.77;;
37309;SDS011;23195;47.744;7.358;2023-04-24T02:52:44;1.33;;;0.80;;
37309;SDS011;23195;47.744;7.358;2023-04-24T02:55:10;2.53;;;0.87;;
37309;SDS011;23195;47.744;7.358;2023-04-24T02:57:36;6.13;;;1.17;;
37309;SDS011;23195;47.744;7.358;2023-04-24T03:00:02;3.97;;;1.30;;
37309;SDS011;23195;47.744;7.358;2023-04-24T03:02:31;4.37;;;1.30;;
37309;SDS011;23195;47.744;7.358;2023-04-24T03:04:57;2.40;;;1.10;;
37309;SDS011;23195;47.744;7.358;2023-04-24T03:07:25;1.87;;;1.20;;
37309;SDS011;23195;47.744;7.358;2023-04-24T03:09:51;1.47;;;0.83;;
37309;SDS011;23195;47.744;7.358;2023-04-24T03:12:20;3.43;;;0.90;;
37309;SDS011;23195;47.744;7.358;2023-04-24T03:14:49;2.10;;;0.90;;
37309;SDS011;23195;47.744;7.358;2023-04-24T03:17:14;1.67;;;1.00;;
37309;SDS011;23195;47.744;7.358;2023-04-24T03:19:43;2.50;;;1.07;;
37309;SDS011;23195;47.744;7.358;2023-04-24T03:22:09;2.07;;;0.90;;
37309;SDS011;23195;47.744;7.358;2023-04-24T03:24:36;4.53;;;1.40;;
37309;SDS011;23195;47.744;7.358;2023-04-24T03:27:02;2.60;;;1.10;;
37309;SDS011;23195;47.744;7.358;2023-04-24T03:29:28;3.20;;;1.00;;
37309;SDS011;23195;47.744;7.358;2023-04-24T03:31:54;1.57;;;1.00;;
37309;SDS011;23195;47.744;7.358;2023-04-24T03:34:19;2.13;;;1.07;;
37309;SDS011;23195;47.744;7.358;2023-04-24T03:36:48;1.20;;;1.00;;
37309;SDS011;23195;47.744;7.358;2023-04-24T03:39:14;2.07;;;1.10;;
37309;SDS011;23195;47.744;7.358;2023-04-24T03:41:39;1.53;;;1.10;;
37309;SDS011;23195;47.744;7.358;2023-04-24T03:44:05;2.40;;;1.60;;
37309;SDS011;23195;47.744;7.358;2023-04-24T03:46:31;4.37;;;1.37;;
37309;SDS011;23195;47.744;7.358;2023-04-24T03:48:57;2.27;;;1.40;;
37309;SDS011;23195;47.744;7.358;2023-04-24T03:51:23;5.57;;;1.40;;
37309;SDS011;23195;47.744;7.358;2023-04-24T03:53:52;2.27;;;0.97;;
37309;SDS011;23195;47.744;7.358;2023-04-24T03:56:17;3.13;;;1.17;;
37309;SDS011;23195;47.744;7.358;2023-04-24T03:58:43;2.13;;;1.40;;
37309;SDS011;23195;47.744;7.358;2023-04-24T04:01:09;2.70;;;1.40;;
37309;SDS011;23195;47.744;7.358;2023-04-24T04:03:36;4.50;;;1.50;;
37309;SDS011;23195;47.744;7.358;2023-04-24T04:06:05;2.70;;;1.40;;
37309;SDS011;23195;47.744;7.358;2023-04-24T04:08:30;2.90;;;1.50;;
37309;SDS011;23195;47.744;7.358;2023-04-24T04:10:56;5.33;;;2.80;;
37309;SDS011;23195;47.744;7.358;2023-04-24T04:13:22;2.83;;;1.77;;
37309;SDS011;23195;47.744;7.358;2023-04-24T04:15:48;5.70;;;1.90;;
37309;SDS011;23195;47.744;7.358;2023-04-24T04:18:13;4.47;;;2.00;;
37309;SDS011;23195;47.744;7.358;2023-04-24T04:20:40;3.73;;;1.80;;
37309;SDS011;23195;47.744;7.358;2023-04-24T04:23:05;3.80;;;2.10;;
37309;SDS011;23195;47.744;7.358;2023-04-24T04:25:31;3.37;;;2.10;;
37309;SDS011;23195;47.744;7.358;2023-04-24T04:27:57;5.40;;;2.33;;
37309;SDS011;23195;47.744;7.358;2023-04-24T04:30:24;2.47;;;2.10;;
37309;SDS011;23195;47.744;7.358;2023-04-24T04:32:51;3.60;;;2.30;;
37309;SDS011;23195;47.744;7.358;2023-04-24T04:35:16;3.23;;;2.30;;
37309;SDS011;23195;47.744;7.358;2023-04-24T04:37:42;5.00;;;2.40;;
37309;SDS011;23195;47.744;7.358;2023-04-24T04:40:08;6.23;;;2.80;;
37309;SDS011;23195;47.744;7.358;2023-04-24T04:42:40;3.37;;;2.40;;
37309;SDS011;23195;47.744;7.358;2023-04-24T04:45:07;4.13;;;2.50;;
37309;SDS011;23195;47.744;7.358;2023-04-24T04:47:37;4.20;;;2.57;;
37309;SDS011;23195;47.744;7.358;2023-04-24T04:50:06;2.87;;;2.30;;
37309;SDS011;23195;47.744;7.358;2023-04-24T04:52:32;5.00;;;2.53;;
37309;SDS011;23195;47.744;7.358;2023-04-24T04:54:57;4.90;;;2.77;;
37309;SDS011;23195;47.744;7.358;2023-04-24T04:57:23;4.67;;;2.30;;
37309;SDS011;23195;47.744;7.358;2023-04-24T04:59:49;5.43;;;3.23;;
37309;SDS011;23195;47.744;7.358;2023-04-24T05:02:15;6.93;;;2.53;;
37309;SDS011;23195;47.744;7.358;2023-04-24T05:04:41;7.20;;;2.90;;
37309;SDS011;23195;47.744;7.358;2023-04-24T05:07:07;3.97;;;2.60;;
37309;SDS011;23195;47.744;7.358;2023-04-24T05:09:32;7.60;;;3.07;;
37309;SDS011;23195;47.744;7.358;2023-04-24T05:11:58;4.03;;;3.10;;
37309;SDS011;23195;47.744;7.358;2023-04-24T05:14:24;7.47;;;2.90;;
37309;SDS011;23195;47.744;7.358;2023-04-24T05:16:50;4.73;;;2.73;;
37309;SDS011;23195;47.744;7.358;2023-04-24T05:19:15;4.93;;;2.90;;
37309;SDS011;23195;47.744;7.358;2023-04-24T05:21:41;3.80;;;2.90;;
37309;SDS011;23195;47.744;7.358;2023-04-24T05:24:07;5.27;;;3.00;;
37309;SDS011;23195;47.744;7.358;2023-04-24T05:26:33;2.90;;;2.60;;
37309;SDS011;23195;47.744;7.358;2023-04-24T05:29:03;3.53;;;3.03;;
37309;SDS011;23195;47.744;7.358;2023-04-24T05:31:32;4.87;;;3.00;;
37309;SDS011;23195;47.744;7.358;2023-04-24T05:33:57;6.67;;;2.97;;
37309;SDS011;23195;47.744;7.358;2023-04-24T05:36:26;4.50;;;2.67;;
37309;SDS011;23195;47.744;7.358;2023-04-24T05:38:52;3.50;;;2.50;;
37309;SDS011;23195;47.744;7.358;2023-04-24T05:41:21;3.97;;;2.70;;
37309;SDS011;23195;47.744;7.358;2023-04-24T05:43:47;5.30;;;3.00;;
37309;SDS011;23195;47.744;7.358;2023-04-24T05:46:13;6.80;;;3.30;;
37309;SDS011;23195;47.744;7.358;2023-04-24T05:48:39;4.30;;;2.90;;
37309;SDS011;23195;47.744;7.358;2023-04-24T05:51:04;4.97;;;3.30;;
37309;SDS011;23195;47.744;7.358;2023-04-24T05:53:30;4.70;;;3.00;;
37309;SDS011;23195;47.744;7.358;2023-04-24T05:55:56;5.17;;;2.73;;
37309;SDS011;23195;47.744;7.358;2023-04-24T05:58:24;10.03;;;2.30;;
37309;SDS011;23195;47.744;7.358;2023-04-24T06:00:50;3.50;;;2.10;;
37309;SDS011;23195;47.744;7.358;2023-04-24T06:03:19;4.37;;;2.20;;
37309;SDS011;23195;47.744;7.358;2023-04-24T06:05:51;3.40;;;2.37;;
37309;SDS011;23195;47.744;7.358;2023-04-24T06:08:37;5.03;;;2.20;;
37309;SDS011;23195;47.744;7.358;2023-04-24T06:11:05;3.07;;;2.33;;
37309;SDS011;23195;47.744;7.358;2023-04-24T06:13:31;3.03;;;2.20;;
37309;SDS011;23195;47.744;7.358;2023-04-24T06:16:00;2.90;;;1.93;;
37309;SDS011;23195;47.744;7.358;2023-04-24T06:18:26;4.70;;;2.60;;
37309;SDS011;23195;47.744;7.358;2023-04-24T06:21:09;4.73;;;2.10;;
37309;SDS011;23195;47.744;7.358;2023-04-24T06:23:37;4.43;;;2.37;;
37309;SDS011;23195;47.744;7.358;2023-04-24T06:26:03;4.77;;;2.20;;
37309;SDS011;23195;47.744;7.358;2023-04-24T06:28:40;2.97;;;2.43;;
37309;SDS011;23195;47.744;7.358;2023-04-24T06:31:05;2.30;;;2.00;;
37309;SDS011;23195;47.744;7.358;2023-04-24T06:33:56;3.20;;;2.37;;
37309;SDS011;23195;47.744;7.358;2023-04-24T06:36:22;3.57;;;2.20;;
37309;SDS011;23195;47.744;7.358;2023-04-24T06:38:48;3.47;;;2.33;;
37309;SDS011;23195;47.744;7.358;2023-04-24T06:41:14;5.47;;;2.57;;
37309;SDS011;23195;47.744;7.358;2023-04-24T06:43:40;4.27;;;2.37;;
37309;SDS011;23195;47.744;7.358;2023-04-24T06:46:06;2.73;;;2.13;;
37309;SDS011;23195;47.744;7.358;2023-04-24T06:48:32;5.40;;;2.17;;
37309;SDS011;23195;47.744;7.358;2023-04-24T06:50:58;4.20;;;2.20;;
37309;SDS011;23195;47.744;7.358;2023-04-24T06:53:26;5.03;;;2.00;;
37309;SDS011;23195;47.744;7.358;2023-04-24T06:55:52;2.50;;;2.10;;
37309;SDS011;23195;47.744;7.358;2023-04-24T06:58:26;2.83;;;1.97;;
37309;SDS011;23195;47.744;7.358;2023-04-24T07:00:55;2.90;;;1.90;;
37309;SDS011;23195;47.744;7.358;2023-04-24T07:03:21;3.57;;;1.97;;
37309;SDS011;23195;47.744;7.358;2023-04-24T07:05:47;4.37;;;1.70;;
37309;SDS011;23195;47.744;7.358;2023-04-24T07:08:14;3.23;;;1.93;;
37309;SDS011;23195;47.744;7.358;2023-04-24T07:10:42;4.13;;;1.83;;
37309;SDS011;23195;47.744;7.358;2023-04-24T07:13:08;6.70;;;2.17;;
37309;SDS011;23195;47.744;7.358;2023-04-24T07:15:34;3.80;;;1.70;;
37309;SDS011;23195;47.744;7.358;2023-04-24T07:18:00;1.90;;;1.57;;
37309;SDS011;23195;47.744;7.358;2023-04-24T07:20:28;2.67;;;2.10;;
37309;SDS011;23195;47.744;7.358;2023-04-24T07:22:56;4.00;;;2.00;;
37309;SDS011;23195;47.744;7.358;2023-04-24T07:25:22;4.30;;;1.70;;
37309;SDS011;23195;47.744;7.358;2023-04-24T07:27:48;2.77;;;1.70;;
37309;SDS011;23195;47.744;7.358;2023-04-24T07:30:14;5.63;;;2.07;;
37309;SDS011;23195;47.744;7.358;2023-04-24T07:32:39;3.07;;;1.43;;
37309;SDS011;23195;47.744;7.358;2023-04-24T07:35:05;2.93;;;1.80;;
37309;SDS011;23195;47.744;7.358;2023-04-24T07:37:34;4.10;;;1.83;;
37309;SDS011;23195;47.744;7.358;2023-04-24T07:40:01;6.87;;;1.63;;
37309;SDS011;23195;47.744;7.358;2023-04-24T07:42:27;11.77;;;2.13;;
37309;SDS011;23195;47.744;7.358;2023-04-24T07:44:55;4.53;;;1.70;;
37309;SDS011;23195;47.744;7.358;2023-04-24T07:47:21;5.53;;;1.70;;
37309;SDS011;23195;47.744;7.358;2023-04-24T07:49:47;3.77;;;1.70;;
37309;SDS011;23195;47.744;7.358;2023-04-24T07:52:13;4.77;;;1.73;;
37309;SDS011;23195;47.744;7.358;2023-04-24T07:54:39;2.70;;;1.60;;
37309;SDS011;23195;47.744;7.358;2023-04-24T07:57:07;7.97;;;1.73;;
37309;SDS011;23195;47.744;7.358;2023-04-24T07:59:36;2.47;;;1.40;;
37309;SDS011;23195;47.744;7.358;2023-04-24T08:02:02;2.47;;;1.37;;
37309;SDS011;23195;47.744;7.358;2023-04-24T08:04:31;3.03;;;1.67;;
37309;SDS011;23195;47.744;7.358;2023-04-24T08:06:58;6.13;;;1.70;;
37309;SDS011;23195;47.744;7.358;2023-04-24T08:09:26;2.10;;;1.30;;
37309;SDS011;23195;47.744;7.358;2023-04-24T08:11:52;3.43;;;1.50;;
37309;SDS011;23195;47.744;7.358;2023-04-24T08:14:18;3.07;;;1.60;;
37309;SDS011;23195;47.744;7.358;2023-04-24T08:16:44;5.40;;;1.50;;
37309;SDS011;23195;47.744;7.358;2023-04-24T08:19:10;4.20;;;1.53;;
37309;SDS011;23195;47.744;7.358;2023-04-24T08:21:36;3.73;;;1.60;;
37309;SDS011;23195;47.744;7.358;2023-04-24T08:24:04;2.10;;;1.50;;
37309;SDS011;23195;47.744;7.358;2023-04-24T08:26:33;3.60;;;1.63;;
37309;SDS011;23195;47.744;7.358;2023-04-24T08:28:59;4.00;;;1.63;;
37309;SDS011;23195;47.744;7.358;2023-04-24T08:31:24;3.00;;;1.50;;
37309;SDS011;23195;47.744;7.358;2023-04-24T08:33:51;2.60;;;1.70;;
37309;SDS011;23195;47.744;7.358;2023-04-24T08:36:17;4.43;;;1.97;;
37309;SDS011;23195;47.744;7.358;2023-04-24T08:38:43;4.37;;;2.10;;
37309;SDS011;23195;47.744;7.358;2023-04-24T08:41:13;2.17;;;1.60;;
37309;SDS011;23195;47.744;7.358;2023-04-24T08:43:45;1.67;;;1.37;;
37309;SDS011;23195;47.744;7.358;2023-04-24T08:46:11;3.63;;;1.70;;
37309;SDS011;23195;47.744;7.358;2023-04-24T08:48:39;4.63;;;1.60;;
37309;SDS011;23195;47.744;7.358;2023-04-24T08:51:08;3.50;;;1.80;;
37309;SDS011;23195;47.744;7.358;2023-04-24T08:53:34;3.83;;;2.10;;
37309;SDS011;23195;47.744;7.358;2023-04-24T08:56:01;2.60;;;1.67;;
37309;SDS011;23195;47.744;7.358;2023-04-24T08:58:27;6.30;;;1.87;;
37309;SDS011;23195;47.744;7.358;2023-04-24T09:00:54;4.23;;;1.40;;
37309;SDS011;23195;47.744;7.358;2023-04-24T09:03:20;4.20;;;1.90;;
37309;SDS011;23195;47.744;7.358;2023-04-24T09:05:47;2.07;;;1.43;;
37309;SDS011;23195;47.744;7.358;2023-04-24T09:08:14;4.37;;;1.77;;
37309;SDS011;23195;47.744;7.358;2023-04-24T09:10:43;3.37;;;1.60;;
37309;SDS011;23195;47.744;7.358;2023-04-24T09:13:09;3.17;;;1.57;;
37309;SDS011;23195;47.744;7.358;2023-04-24T09:15:39;4.53;;;1.30;;
37309;SDS011;23195;47.744;7.358;2023-04-24T09:18:06;5.43;;;1.60;;
37309;SDS011;23195;47.744;7.358;2023-04-24T09:20:32;2.93;;;1.70;;
37309;SDS011;23195;47.744;7.358;2023-04-24T09:23:01;2.87;;;1.50;;
37309;SDS011;23195;47.744;7.358;2023-04-24T09:25:33;2.60;;;1.37;;
37309;SDS011;23195;47.744;7.358;2023-04-24T09:28:03;3.00;;;1.40;;
37309;SDS011;23195;47.744;7.358;2023-04-24T09:30:31;3.27;;;1.87;;
37309;SDS011;23195;47.744;7.358;2023-04-24T09:33:18;3.03;;;1.50;;
37309;SDS011;23195;47.744;7.358;2023-04-24T09:35:50;2.93;;;1.60;;
37309;SDS011;23195;47.744;7.358;2023-04-24T09:38:19;4.00;;;2.00;;
37309;SDS011;23195;47.744;7.358;2023-04-24T09:40:55;4.20;;;1.90;;
37309;SDS011;23195;47.744;7.358;2023-04-24T09:43:23;3.17;;;1.40;;
37309;SDS011;23195;47.744;7.358;2023-04-24T09:45:53;5.27;;;1.53;;
37309;SDS011;23195;47.744;7.358;2023-04-24T09:48:31;3.73;;;1.57;;
37309;SDS011;23195;47.744;7.358;2023-04-24T09:50:59;2.80;;;1.80;;
37309;SDS011;23195;47.744;7.358;2023-04-24T09:53:27;1.90;;;1.47;;
37309;SDS011;23195;47.744;7.358;2023-04-24T09:55:53;3.80;;;1.50;;
37309;SDS011;23195;47.744;7.358;2023-04-24T09:58:25;3.87;;;1.47;;
37309;SDS011;23195;47.744;7.358;2023-04-24T10:00:55;1.60;;;1.37;;
37309;SDS011;23195;47.744;7.358;2023-04-24T10:03:25;2.47;;;1.40;;
37309;SDS011;23195;47.744;7.358;2023-04-24T10:05:52;4.13;;;1.70;;
37309;SDS011;23195;47.744;7.358;2023-04-24T10:08:21;1.63;;;1.20;;
37309;SDS011;23195;47.744;7.358;2023-04-24T10:10:47;4.20;;;1.40;;
37309;SDS011;23195;47.744;7.358;2023-04-24T10:13:13;2.13;;;1.60;;
37309;SDS011;23195;47.744;7.358;2023-04-24T10:15:40;3.43;;;1.40;;
37309;SDS011;23195;47.744;7.358;2023-04-24T10:18:07;4.80;;;1.60;;
37309;SDS011;23195;47.744;7.358;2023-04-24T10:20:34;2.93;;;1.23;;
37309;SDS011;23195;47.744;7.358;2023-04-24T10:23:03;5.17;;;1.67;;
37309;SDS011;23195;47.744;7.358;2023-04-24T10:25:29;3.80;;;1.60;;
37309;SDS011;23195;47.744;7.358;2023-04-24T10:27:56;2.73;;;1.50;;
37309;SDS011;23195;47.744;7.358;2023-04-24T10:30:27;2.40;;;1.40;;
37309;SDS011;23195;47.744;7.358;2023-04-24T10:32:54;1.67;;;1.47;;
37309;SDS011;23195;47.744;7.358;2023-04-24T10:35:20;2.13;;;1.40;;
37309;SDS011;23195;47.744;7.358;2023-04-24T10:37:51;2.07;;;1.50;;
37309;SDS011;23195;47.744;7.358;2023-04-24T10:40:32;3.60;;;1.60;;
37309;SDS011;23195;47.744;7.358;2023-04-24T10:43:08;2.83;;;1.50;;
37309;SDS011;23195;47.744;7.358;2023-04-24T10:45:39;2.43;;;1.50;;
37309;SDS011;23195;47.744;7.358;2023-04-24T10:48:06;3.20;;;1.40;;
37309;SDS011;23195;47.744;7.358;2023-04-24T10:50:52;3.60;;;1.83;;
37309;SDS011;23195;47.744;7.358;2023-04-24T10:53:19;4.20;;;1.70;;
37309;SDS011;23195;47.744;7.358;2023-04-24T10:55:52;5.03;;;1.73;;
37309;SDS011;23195;47.744;7.358;2023-04-24T10:58:45;3.10;;;1.50;;
37309;SDS011;23195;47.744;7.358;2023-04-24T11:01:32;2.63;;;1.70;;
37309;SDS011;23195;47.744;7.358;2023-04-24T11:03:59;6.40;;;1.93;;
37309;SDS011;23195;47.744;7.358;2023-04-24T11:06:34;3.27;;;1.70;;
37309;SDS011;23195;47.744;7.358;2023-04-24T11:09:04;4.03;;;1.87;;
37309;SDS011;23195;47.744;7.358;2023-04-24T11:11:31;4.57;;;2.10;;
37309;SDS011;23195;47.744;7.358;2023-04-24T11:21:45;3.33;;;1.77;;
37309;SDS011;23195;47.744;7.358;2023-04-24T11:27:13;3.37;;;1.63;;
37309;SDS011;23195;47.744;7.358;2023-04-24T11:32:37;3.27;;;1.80;;
37309;SDS011;23195;47.744;7.358;2023-04-24T11:35:26;2.70;;;1.80;;
37309;SDS011;23195;47.744;7.358;2023-04-24T11:37:58;3.20;;;1.70;;
37309;SDS011;23195;47.744;7.358;2023-04-24T11:40:27;5.03;;;1.63;;
37309;SDS011;23195;47.744;7.358;2023-04-24T11:42:53;5.00;;;2.00;;
37309;SDS011;23195;47.744;7.358;2023-04-24T11:45:29;3.87;;;2.07;;
37309;SDS011;23195;47.744;7.358;2023-04-24T11:47:55;5.17;;;1.93;;
37309;SDS011;23195;47.744;7.358;2023-04-24T11:50:22;5.73;;;2.00;;
37309;SDS011;23195;47.744;7.358;2023-04-24T11:53:05;3.80;;;2.17;;
37309;SDS011;23195;47.744;7.358;2023-04-24T11:55:38;2.60;;;1.90;;
37309;SDS011;23195;47.744;7.358;2023-04-24T12:01:22;4.77;;;2.50;;
37309;SDS011;23195;47.744;7.358;2023-04-24T12:03:59;3.97;;;2.50;;
37309;SDS011;23195;47.744;7.358;2023-04-24T12:06:28;4.03;;;2.10;;
37309;SDS011;23195;47.744;7.358;2023-04-24T12:08:55;2.43;;;2.03;;
37309;SDS011;23195;47.744;7.358;2023-04-24T12:11:22;4.87;;;2.27;;
37309;SDS011;23195;47.744;7.358;2023-04-24T12:13:48;2.97;;;2.10;;
37309;SDS011;23195;47.744;7.358;2023-04-24T12:16:14;4.13;;;1.97;;
37309;SDS011;23195;47.744;7.358;2023-04-24T12:18:43;5.47;;;2.40;;
37309;SDS011;23195;47.744;7.358;2023-04-24T12:23:45;5.10;;;2.37;;
37309;SDS011;23195;47.744;7.358;2023-04-24T12:26:12;3.13;;;2.40;;
37309;SDS011;23195;47.744;7.358;2023-04-24T12:28:42;4.23;;;2.27;;
37309;SDS011;23195;47.744;7.358;2023-04-24T12:31:14;3.70;;;2.17;;
37309;SDS011;23195;47.744;7.358;2023-04-24T12:33:41;4.33;;;2.30;;
37309;SDS011;23195;47.744;7.358;2023-04-24T12:36:09;5.60;;;2.33;;
37309;SDS011;23195;47.744;7.358;2023-04-24T12:38:44;3.07;;;1.87;;
37309;SDS011;23195;47.744;7.358;2023-04-24T12:41:12;3.43;;;1.63;;
37309;SDS011;23195;47.744;7.358;2023-04-24T12:43:38;1.50;;;1.40;;
37309;SDS011;23195;47.744;7.358;2023-04-24T12:46:20;3.43;;;2.00;;
37309;SDS011;23195;47.744;7.358;2023-04-24T12:48:48;2.53;;;1.80;;
37309;SDS011;23195;47.744;7.358;2023-04-24T12:51:13;2.53;;;1.60;;
37309;SDS011;23195;47.744;7.358;2023-04-24T12:53:39;1.93;;;1.43;;
37309;SDS011;23195;47.744;7.358;2023-04-24T12:56:05;3.40;;;1.80;;
37309;SDS011;23195;47.744;7.358;2023-04-24T12:58:34;2.53;;;1.73;;
37309;SDS011;23195;47.744;7.358;2023-04-24T13:01:03;3.73;;;1.40;;
37309;SDS011;23195;47.744;7.358;2023-04-24T13:03:28;2.57;;;1.30;;
37309;SDS011;23195;47.744;7.358;2023-04-24T13:05:54;1.87;;;1.57;;
37309;SDS011;23195;47.744;7.358;2023-04-24T13:08:20;4.57;;;2.03;;
37309;SDS011;23195;47.744;7.358;2023-04-24T13:10:49;7.67;;;2.30;;
37309;SDS011;23195;47.744;7.358;2023-04-24T13:13:16;3.73;;;1.97;;
37309;SDS011;23195;47.744;7.358;2023-04-24T13:15:42;4.73;;;2.30;;
37309;SDS011;23195;47.744;7.358;2023-04-24T13:18:08;5.57;;;2.23;;
37309;SDS011;23195;47.744;7.358;2023-04-24T13:20:34;3.50;;;2.00;;
37309;SDS011;23195;47.744;7.358;2023-04-24T13:23:00;1.63;;;1.43;;
37309;SDS011;23195;47.744;7.358;2023-04-24T13:25:26;2.90;;;1.80;;
37309;SDS011;23195;47.744;7.358;2023-04-24T13:27:55;2.53;;;1.60;;
37309;SDS011;23195;47.744;7.358;2023-04-24T13:30:20;2.80;;;1.97;;
37309;SDS011;23195;47.744;7.358;2023-04-24T13:32:46;5.07;;;3.27;;
37309;SDS011;23195;47.744;7.358;2023-04-24T13:35:12;2.30;;;1.90;;
37309;SDS011;23195;47.744;7.358;2023-04-24T13:37:38;2.83;;;1.90;;
37309;SDS011;23195;47.744;7.358;2023-04-24T13:40:03;4.47;;;2.03;;
37309;SDS011;23195;47.744;7.358;2023-04-24T13:42:31;3.47;;;1.97;;
37309;SDS011;23195;47.744;7.358;2023-04-24T13:44:57;3.03;;;2.00;;
37309;SDS011;23195;47.744;7.358;2023-04-24T13:47:22;1.97;;;1.77;;
37309;SDS011;23195;47.744;7.358;2023-04-24T13:49:48;3.37;;;1.80;;
37309;SDS011;23195;47.744;7.358;2023-04-24T13:52:14;6.23;;;1.70;;
37309;SDS011;23195;47.744;7.358;2023-04-24T13:54:43;2.43;;;1.83;;
37309;SDS011;23195;47.744;7.358;2023-04-24T13:57:09;4.83;;;1.90;;
37309;SDS011;23195;47.744;7.358;2023-04-24T13:59:35;1.83;;;1.73;;
37309;SDS011;23195;47.744;7.358;2023-04-24T14:02:02;5.90;;;1.90;;
37309;SDS011;23195;47.744;7.358;2023-04-24T14:04:27;3.57;;;1.90;;
37309;SDS011;23195;47.744;7.358;2023-04-24T14:06:54;2.80;;;2.00;;
37309;SDS011;23195;47.744;7.358;2023-04-24T14:09:19;2.77;;;1.90;;
37309;SDS011;23195;47.744;7.358;2023-04-24T14:11:45;2.77;;;1.97;;
37309;SDS011;23195;47.744;7.358;2023-04-24T14:14:11;3.43;;;2.30;;
37309;SDS011;23195;47.744;7.358;2023-04-24T14:16:37;4.73;;;2.20;;
37309;SDS011;23195;47.744;7.358;2023-04-24T14:19:02;4.83;;;2.57;;
37309;SDS011;23195;47.744;7.358;2023-04-24T14:21:34;6.57;;;2.40;;
37309;SDS011;23195;47.744;7.358;2023-04-24T14:23:59;5.37;;;2.33;;
37309;SDS011;23195;47.744;7.358;2023-04-24T14:26:25;7.27;;;2.40;;
37309;SDS011;23195;47.744;7.358;2023-04-24T14:28:51;3.30;;;2.10;;
37309;SDS011;23195;47.744;7.358;2023-04-24T14:31:18;4.97;;;2.10;;
37309;SDS011;23195;47.744;7.358;2023-04-24T14:33:44;4.03;;;1.93;;
37309;SDS011;23195;47.744;7.358;2023-04-24T14:36:10;3.87;;;2.13;;
37309;SDS011;23195;47.744;7.358;2023-04-24T14:38:36;5.47;;;2.37;;
37309;SDS011;23195;47.744;7.358;2023-04-24T14:41:02;3.03;;;2.30;;
37309;SDS011;23195;47.744;7.358;2023-04-24T14:43:33;4.13;;;2.53;;
37309;SDS011;23195;47.744;7.358;2023-04-24T14:46:00;3.83;;;2.30;;
37309;SDS011;23195;47.744;7.358;2023-04-24T14:48:26;3.97;;;2.83;;
37309;SDS011;23195;47.744;7.358;2023-04-24T14:50:52;6.97;;;2.40;;
37309;SDS011;23195;47.744;7.358;2023-04-24T14:53:21;3.60;;;2.50;;
37309;SDS011;23195;47.744;7.358;2023-04-24T14:55:47;5.70;;;2.60;;
37309;SDS011;23195;47.744;7.358;2023-04-24T14:58:12;8.33;;;2.97;;
37309;SDS011;23195;47.744;7.358;2023-04-24T15:00:38;4.67;;;2.60;;
37309;SDS011;23195;47.744;7.358;2023-04-24T15:03:04;4.03;;;2.70;;
37309;SDS011;23195;47.744;7.358;2023-04-24T15:05:29;3.87;;;2.50;;
37309;SDS011;23195;47.744;7.358;2023-04-24T15:07:55;4.43;;;2.97;;
37309;SDS011;23195;47.744;7.358;2023-04-24T15:10:21;4.23;;;2.90;;